KDVN/DVN METAR and TAF weather

Enter ICAO airport designator
Station Type Date Time Source
KDVN METAR 2022/12/04 05:52 UTC NOAA

KDVN 040552Z AUTO 17005KT 10SM CLR M09/M14 A3040 RMK AO2 SLP302 T10941139 11067 21100 410061100 58013


Station Type Date Time Source
KDVN Decoded METAR 2022/12/04 05:52 UTC NOAA

DAVENPORT MUNICIPAL AIRPORT, IA, United States (KDVN) 41-37N 90-35W 228M
Dec 04, 2022 - 12:52 AM EST / 2022.12.04 0552 UTC
Wind: from the S (170 degrees) at 6 MPH (5 KT):0
Visibility: 10 mile(s):0
Sky conditions: clear
Temperature: 15.1 F (-9.4 C)
Windchill: 6 F (-14 C):1
Dew Point: 7.0 F (-13.9 C)
Relative Humidity: 69%
Pressure (altimeter): 30.4 in. Hg (1029 hPa)
Pressure tendency: 0.04 inches (1.3 hPa) lower than three hours ago
ob: KDVN 040552Z AUTO 17005KT 10SM CLR M09/M14 A3040 RMK AO2 SLP302 T10941139 11067 21100 410061100 58013
cycle: 6

Station Type Date Time Source
KDVN TAF UTC NOAA

Error!

Example: see airport list